Terminal Aerodrome Forecast
Issued by NWS

Home | Current Version | Previous Version | Graphics & Text | Print | Product List | Glossary On
Versions: 1 2 3 4 5 6 7 8 9 10 11 12 13 14 15 16 17 18
000
FTUS43 KICT 172300
TAFRSL
TAF
KRSL 172330Z 1800/1824 36007KT P6SM BKN300
     FM180800 07003KT P6SM BKN300=

USA.gov is the U.S. government's official web portal to all federal, state and local government web resources and services.